Time;durP1;ratioP1;P1;durP2;ratioP2;P2;SDS_P1;SDS_P2;PMS_P1;PMS_P2;Temp;Humidity;BMP_temperature;BMP_pressure;BME280_temperature;BME280_humidity;BME280_pressure;Samples;Min_cycle;Max_cycle;Signal;HPM_P1;HPM_P2
2022/01/10 00:00:54;;;;;;;;;;;;;;;5.37;50.71;99163.84;4342687;32;20010;-74
2022/01/10 00:03:22;;;;;;;;;;;;;;;5.02;51.81;99161.22;4341847;32;19987;-75
2022/01/10 00:05:50;;;;;;;;;;;;;;;5.17;51.08;99159.88;4356218;32;19985;-73
2022/01/10 00:08:17;;;;;;;;;;;;;;;5.18;51.07;99156.50;4370758;32;19999;-74
2022/01/10 00:10:44;;;;;;;;;;;;;;;5.43;50.28;99158.88;4356471;32;19994;-74
2022/01/10 00:13:11;;;;;;;;;;;;;;;5.40;50.15;99156.25;4370432;32;20035;-74
2022/01/10 00:15:38;;;;;;;;;;;;;;;5.45;50.12;99162.34;4370310;32;19979;-75
2022/01/10 00:18:05;;;;;;;;;;;;;;;5.25;50.82;99163.53;4372476;32;19991;-75
2022/01/10 00:20:32;;;;;;;;;;;;;;;5.30;50.78;99156.84;4364887;32;20150;-74
2022/01/10 00:22:58;;;;;;;;;;;;;;;5.27;51.02;99161.88;4373586;32;20061;-74
2022/01/10 00:25:26;;;;;;;;;;;;;;;4.98;51.95;99154.28;4371591;32;20059;-74
2022/01/10 00:27:53;;;;;;;;;;;;;;;4.96;51.88;99163.63;4364243;32;20493;-74
2022/01/10 00:30:21;;;;;;;;;;;;;;;5.00;51.87;99162.00;4374207;32;19982;-74
2022/01/10 00:32:48;;;;;;;;;;;;;;;5.03;51.55;99157.81;4365646;32;20028;-73
2022/01/10 00:35:15;;;;;;;;;;;;;;;5.11;51.33;99166.59;4386125;32;19978;-74
2022/01/10 00:37:43;;;;;;;;;;;;;;;5.02;51.31;99160.34;4371821;32;19978;-74
2022/01/10 00:40:11;;;;;;;;;;;;;;;4.95;51.76;99169.59;4385870;32;20033;-74
2022/01/10 00:42:38;;;;;;;;;;;;;;;5.01;51.39;99168.84;4371491;32;19986;-74
2022/01/10 00:45:13;;;;;;;;;;;;;;;4.94;51.39;99167.81;4368482;32;19978;-74
2022/01/10 00:47:40;;;;;;;;;;;;;;;4.97;51.48;99167.91;4384423;32;20415;-74
2022/01/10 00:50:07;;;;;;;;;;;;;;;4.89;51.78;99169.41;4360229;32;20333;-74
2022/01/10 00:52:35;;;;;;;;;;;;;;;5.04;51.32;99169.84;4377120;32;19995;-74
2022/01/10 00:55:02;;;;;;;;;;;;;;;5.06;51.22;99168.16;4362327;32;20038;-74
2022/01/10 00:57:31;;;;;;;;;;;;;;;4.76;51.97;99167.34;4370758;32;19983;-74
2022/01/10 01:00:00;;;;;;;;;;;;;;;4.94;51.61;99177.22;4356752;32;20510;-75
2022/01/10 01:02:32;;;;;;;;;;;;;;;5.09;51.01;99173.38;4356895;32;19982;-75
2022/01/10 01:05:00;;;;;;;;;;;;;;;4.95;51.39;99176.41;4362311;32;20368;-74
2022/01/10 01:07:27;;;;;;;;;;;;;;;5.03;51.03;99177.47;4355939;32;20091;-74
2022/01/10 01:10:13;;;;;;;;;;;;;;;4.85;51.64;99177.81;4377876;32;19986;-74
2022/01/10 01:12:55;;;;;;;;;;;;;;;5.04;50.97;99182.66;4360156;32;20065;-74
2022/01/10 01:18:21;;;;;;;;;;;;;;;4.93;51.34;99180.63;4376126;32;19998;-74
2022/01/10 01:26:19;;;;;;;;;;;;;;;4.91;51.43;99183.13;4370530;32;20288;-73
2022/01/10 01:28:46;;;;;;;;;;;;;;;4.99;51.25;99186.78;4368873;32;20021;-74
2022/01/10 01:31:15;;;;;;;;;;;;;;;4.88;51.96;99183.03;4356507;32;20364;-74
2022/01/10 01:33:42;;;;;;;;;;;;;;;4.93;51.70;99186.59;4369979;32;19979;-75
2022/01/10 01:36:09;;;;;;;;;;;;;;;5.06;51.52;99193.81;4370290;32;19983;-74
2022/01/10 01:38:36;;;;;;;;;;;;;;;5.29;50.78;99185.87;4370221;32;20062;-74
2022/01/10 01:41:21;;;;;;;;;;;;;;;5.08;51.50;99188.75;4369961;32;20044;-73
2022/01/10 01:43:48;;;;;;;;;;;;;;;4.79;52.37;99193.06;4370295;32;20050;-74
2022/01/10 01:46:15;;;;;;;;;;;;;;;5.11;51.31;99197.38;4380846;32;20078;-74
2022/01/10 01:48:42;;;;;;;;;;;;;;;4.73;52.98;99198.00;4371003;32;20315;-75
2022/01/10 01:51:10;;;;;;;;;;;;;;;4.89;52.03;99195.06;4366734;32;19991;-74
2022/01/10 01:53:37;;;;;;;;;;;;;;;4.83;52.24;99197.44;4395538;32;19994;-74
2022/01/10 01:56:05;;;;;;;;;;;;;;;5.09;51.52;99195.59;4360367;32;19982;-74
2022/01/10 01:58:32;;;;;;;;;;;;;;;5.23;50.98;99194.28;4024674;32;10008506;-74
2022/01/10 02:01:00;;;;;;;;;;;;;;;5.26;50.81;99196.03;4363332;32;20038;-73
2022/01/10 02:03:27;;;;;;;;;;;;;;;5.03;51.30;99193.72;4384451;32;19994;-75
2022/01/10 02:05:54;;;;;;;;;;;;;;;5.09;51.33;99193.91;4371058;32;20275;-74
2022/01/10 02:08:21;;;;;;;;;;;;;;;5.12;51.26;99198.25;4383858;32;19990;-74
2022/01/10 02:10:49;;;;;;;;;;;;;;;5.14;51.36;99194.03;4382578;32;19983;-74
2022/01/10 02:13:16;;;;;;;;;;;;;;;5.27;50.98;99192.69;4384000;32;20006;-74
2022/01/10 02:15:50;;;;;;;;;;;;;;;5.28;50.93;99189.28;4359105;32;20046;-74
2022/01/10 02:18:18;;;;;;;;;;;;;;;5.32;50.84;99191.09;4381179;32;19971;-74
2022/01/10 02:20:46;;;;;;;;;;;;;;;4.82;52.62;99193.16;4382957;32;20010;-75
2022/01/10 02:23:14;;;;;;;;;;;;;;;5.10;51.56;99195.63;4358316;32;20001;-74
2022/01/10 02:25:42;;;;;;;;;;;;;;;5.28;51.04;99191.84;4394778;32;19994;-75
2022/01/10 02:28:09;;;;;;;;;;;;;;;5.41;50.78;99191.31;4362523;32;19982;-75
2022/01/10 02:30:37;;;;;;;;;;;;;;;4.97;52.08;99193.56;4386193;32;20001;-74
2022/01/10 02:33:04;;;;;;;;;;;;;;;5.00;52.23;99192.78;4385916;32;19987;-75
2022/01/10 02:35:43;;;;;;;;;;;;;;;5.21;51.41;99193.37;4349045;32;19975;-74
2022/01/10 02:38:10;;;;;;;;;;;;;;;5.11;51.65;99189.69;4365463;32;20046;-73
2022/01/10 02:40:37;;;;;;;;;;;;;;;5.25;51.32;99189.19;4371588;32;19998;-74
2022/01/10 02:43:08;;;;;;;;;;;;;;;5.18;51.68;99188.16;4386147;32;20373;-74
2022/01/10 02:45:35;;;;;;;;;;;;;;;5.28;51.32;99195.25;4386826;32;19986;-74
2022/01/10 02:48:02;;;;;;;;;;;;;;;4.97;52.35;99198.69;4397161;32;20001;-74
2022/01/10 02:50:30;;;;;;;;;;;;;;;5.36;51.20;99195.50;4371180;32;20375;-74
2022/01/10 02:52:57;;;;;;;;;;;;;;;5.47;50.56;99196.62;4365053;32;19987;-74
2022/01/10 02:55:25;;;;;;;;;;;;;;;4.97;52.12;99193.56;4357681;32;20040;-75
2022/01/10 02:57:52;;;;;;;;;;;;;;;4.65;53.02;99190.06;4364238;32;19970;-74
2022/01/10 03:00:20;;;;;;;;;;;;;;;5.01;51.96;99205.66;4386564;32;19979;-74
2022/01/10 03:02:50;;;;;;;;;;;;;;;5.03;52.08;99204.00;4372050;32;20094;-74
2022/01/10 03:05:18;;;;;;;;;;;;;;;5.06;51.56;99210.91;4360678;32;20038;-74
2022/01/10 03:07:46;;;;;;;;;;;;;;;5.02;51.84;99204.81;4384982;32;19978;-74
2022/01/10 03:10:13;;;;;;;;;;;;;;;4.98;52.18;99210.69;4361285;32;20062;-74
2022/01/10 03:12:40;;;;;;;;;;;;;;;4.92;52.36;99207.97;4357614;32;19982;-74
2022/01/10 03:15:08;;;;;;;;;;;;;;;5.24;51.37;99213.12;4369477;32;20755;-75
2022/01/10 03:17:36;;;;;;;;;;;;;;;5.19;51.14;99209.53;4385371;32;19994;-74
2022/01/10 03:20:03;;;;;;;;;;;;;;;5.24;50.99;99213.97;4397409;32;19978;-74
2022/01/10 03:22:31;;;;;;;;;;;;;;;5.02;51.84;99219.34;4360362;32;20320;-74
2022/01/10 03:24:58;;;;;;;;;;;;;;;4.83;52.71;99220.53;4397788;32;19987;-74
2022/01/10 03:27:26;;;;;;;;;;;;;;;5.01;52.30;99226.19;4395617;32;19999;-74
2022/01/10 03:29:53;;;;;;;;;;;;;;;5.06;52.19;99224.59;4364916;32;19995;-74
2022/01/10 03:32:20;;;;;;;;;;;;;;;4.82;52.53;99227.34;4357633;32;19995;-74
2022/01/10 03:34:48;;;;;;;;;;;;;;;5.01;52.35;99230.41;4381511;32;20051;-75
2022/01/10 03:37:15;;;;;;;;;;;;;;;5.11;52.53;99233.31;4385325;32;19999;-74
2022/01/10 03:39:42;;;;;;;;;;;;;;;5.08;52.35;99233.22;4396398;32;19987;-75
2022/01/10 03:42:10;;;;;;;;;;;;;;;4.78;53.54;99232.31;4359283;32;19986;-75
2022/01/10 03:44:37;;;;;;;;;;;;;;;4.74;53.64;99235.62;4385731;32;19982;-75
2022/01/10 03:47:05;;;;;;;;;;;;;;;4.75;53.49;99234.78;4375805;32;19996;-75
2022/01/10 03:49:32;;;;;;;;;;;;;;;4.83;53.32;99235.91;4372198;32;20454;-75
2022/01/10 03:51:59;;;;;;;;;;;;;;;4.71;53.80;99243.22;4385221;32;19994;-74
2022/01/10 03:54:26;;;;;;;;;;;;;;;4.44;54.33;99251.84;4371769;32;19979;-74
2022/01/10 03:56:53;;;;;;;;;;;;;;;4.71;53.85;99246.66;4361137;32;20308;-74
2022/01/10 03:59:20;;;;;;;;;;;;;;;4.80;53.58;99246.06;4376617;32;19990;-75
2022/01/10 04:01:50;;;;;;;;;;;;;;;4.74;53.63;99251.00;4369599;32;19978;-75
2022/01/10 04:04:17;;;;;;;;;;;;;;;4.93;53.18;99262.69;4388815;32;19991;-75
2022/01/10 04:06:44;;;;;;;;;;;;;;;4.78;53.56;99260.53;4370469;32;20001;-74
2022/01/10 04:09:11;;;;;;;;;;;;;;;4.76;53.95;99269.87;4381404;32;19994;-73
2022/01/10 04:11:38;;;;;;;;;;;;;;;5.08;52.94;99269.13;4369196;32;19997;-74
2022/01/10 04:14:05;;;;;;;;;;;;;;;5.13;52.19;99267.53;4370649;32;19991;-75
2022/01/10 04:16:32;;;;;;;;;;;;;;;5.18;52.06;99271.97;4370830;32;19975;-74
2022/01/10 04:19:00;;;;;;;;;;;;;;;5.31;51.92;99271.47;4370579;32;20008;-74
2022/01/10 04:21:27;;;;;;;;;;;;;;;5.28;52.29;99277.37;4371238;32;19983;-74
2022/01/10 04:23:55;;;;;;;;;;;;;;;5.12;52.50;99281.19;4370165;32;19978;-74
2022/01/10 04:26:22;;;;;;;;;;;;;;;5.30;52.46;99274.88;4357365;32;19986;-74
2022/01/10 04:28:49;;;;;;;;;;;;;;;5.27;52.38;99274.78;4360314;32;20277;-75
2022/01/10 04:31:16;;;;;;;;;;;;;;;5.24;52.64;99282.41;4370952;32;19998;-74
2022/01/10 04:33:44;;;;;;;;;;;;;;;5.31;52.19;99281.72;4369645;32;20030;-74
2022/01/10 04:36:11;;;;;;;;;;;;;;;5.25;52.08;99286.69;4394247;32;20482;-74
2022/01/10 04:38:42;;;;;;;;;;;;;;;5.15;52.17;99285.56;4370580;32;20001;-74
2022/01/10 04:41:10;;;;;;;;;;;;;;;5.26;52.03;99285.84;4370412;32;20320;-74
2022/01/10 04:43:37;;;;;;;;;;;;;;;5.50;51.24;99289.09;4369812;32;19986;-72
2022/01/10 04:46:04;;;;;;;;;;;;;;;5.23;52.14;99288.31;4368305;32;19997;-72
2022/01/10 04:48:31;;;;;;;;;;;;;;;5.32;52.27;99293.72;4361432;32;19995;-72
2022/01/10 04:51:12;;;;;;;;;;;;;;;5.27;52.48;99295.31;4368458;32;20014;-72
2022/01/10 04:53:40;;;;;;;;;;;;;;;5.32;52.54;99294.59;4354244;32;20046;-72
2022/01/10 04:56:07;;;;;;;;;;;;;;;5.31;52.68;99307.41;4362030;32;20551;-72
2022/01/10 04:58:34;;;;;;;;;;;;;;;5.03;53.54;99301.44;4350045;32;20017;-72
2022/01/10 05:01:03;;;;;;;;;;;;;;;5.29;52.57;99299.63;4370205;32;20360;-72
2022/01/10 05:03:31;;;;;;;;;;;;;;;5.26;52.83;99304.69;4347537;32;19983;-72
2022/01/10 05:05:58;;;;;;;;;;;;;;;5.41;52.50;99299.13;4368588;32;20438;-71
2022/01/10 05:08:25;;;;;;;;;;;;;;;5.45;52.18;99311.19;4370059;32;19991;-72
2022/01/10 05:10:52;;;;;;;;;;;;;;;5.35;52.44;99314.34;4343886;32;19991;-72
2022/01/10 05:13:20;;;;;;;;;;;;;;;5.46;52.13;99307.81;4356658;32;20001;-71
2022/01/10 05:15:49;;;;;;;;;;;;;;;5.32;52.70;99314.25;4356648;32;19998;-71
2022/01/10 05:18:21;;;;;;;;;;;;;;;5.29;52.57;99317.59;4356190;32;19987;-74
2022/01/10 05:20:50;;;;;;;;;;;;;;;5.58;51.51;99318.44;4339232;32;19993;-75
2022/01/10 05:23:16;;;;;;;;;;;;;;;5.53;52.02;99319.12;4369633;32;19989;-74
2022/01/10 05:25:44;;;;;;;;;;;;;;;5.62;51.72;99318.53;4368922;32;20029;-74
2022/01/10 05:28:12;;;;;;;;;;;;;;;5.56;51.63;99322.66;4358016;32;19983;-74
2022/01/10 05:30:40;;;;;;;;;;;;;;;5.53;51.92;99319.12;4356191;32;19983;-74
2022/01/10 05:33:07;;;;;;;;;;;;;;;5.57;51.76;99329.50;4354886;32;20000;-74
2022/01/10 05:35:35;;;;;;;;;;;;;;;5.80;51.34;99329.28;4358371;32;20324;-74
2022/01/10 05:38:03;;;;;;;;;;;;;;;5.65;51.59;99327.19;4356677;32;20322;-74
2022/01/10 05:40:31;;;;;;;;;;;;;;;5.39;52.23;99331.56;4370002;32;19990;-74
2022/01/10 05:42:58;;;;;;;;;;;;;;;5.33;52.75;99331.41;4351760;32;20042;-74
2022/01/10 05:45:25;;;;;;;;;;;;;;;5.40;52.38;99333.31;4370265;32;20038;-73
2022/01/10 05:47:52;;;;;;;;;;;;;;;5.52;52.29;99335.34;4356113;32;19986;-74
2022/01/10 05:50:31;;;;;;;;;;;;;;;5.55;52.08;99333.75;4345854;32;19979;-74
2022/01/10 05:52:59;;;;;;;;;;;;;;;5.55;51.94;99338.87;4369781;32;20002;-74
2022/01/10 05:55:26;;;;;;;;;;;;;;;5.78;51.12;99336.94;4332527;32;20234;-74
2022/01/10 05:57:54;;;;;;;;;;;;;;;5.72;51.33;99338.47;4357464;32;19983;-74
2022/01/10 06:00:21;;;;;;;;;;;;;;;5.81;50.79;99338.72;4369282;32;20001;-74
2022/01/10 06:02:48;;;;;;;;;;;;;;;5.78;50.78;99341.22;4346387;32;20505;-73
2022/01/10 06:05:17;;;;;;;;;;;;;;;5.70;50.70;99340.13;4357087;32;20422;-74
2022/01/10 06:07:44;;;;;;;;;;;;;;;5.73;50.59;99343.66;4370497;32;19979;-75
2022/01/10 06:10:11;;;;;;;;;;;;;;;5.68;50.93;99339.19;4359558;32;19990;-77
2022/01/10 06:12:39;;;;;;;;;;;;;;;5.62;51.09;99345.06;4356994;32;20082;-76
2022/01/10 06:15:06;;;;;;;;;;;;;;;5.74;50.59;99350.53;4348204;32;19983;-76
2022/01/10 06:17:33;;;;;;;;;;;;;;;5.70;50.62;99347.81;4357872;32;20006;-75
2022/01/10 06:20:01;;;;;;;;;;;;;;;5.79;50.20;99348.94;4350156;32;19979;-75
2022/01/10 06:22:29;;;;;;;;;;;;;;;5.73;50.52;99348.78;4360437;32;19986;-76
2022/01/10 06:24:56;;;;;;;;;;;;;;;5.63;50.63;99351.06;4371540;32;19994;-75
2022/01/10 06:27:23;;;;;;;;;;;;;;;5.90;50.12;99351.78;4369960;32;19999;-77
2022/01/10 06:29:49;;;;;;;;;;;;;;;5.72;50.66;99361.59;4371161;32;20008;-76
2022/01/10 06:32:17;;;;;;;;;;;;;;;5.85;50.25;99358.53;4357187;32;20001;-75
2022/01/10 06:34:44;;;;;;;;;;;;;;;5.66;51.02;99364.00;4371342;32;19983;-75
2022/01/10 06:37:12;;;;;;;;;;;;;;;5.61;51.15;99368.97;4365195;32;21852;-76
2022/01/10 06:39:39;;;;;;;;;;;;;;;5.79;50.60;99363.50;4353306;32;19987;-75
2022/01/10 06:42:07;;;;;;;;;;;;;;;5.83;50.30;99370.44;4348957;32;19993;-74
2022/01/10 06:44:34;;;;;;;;;;;;;;;5.90;50.17;99381.75;4368986;32;20022;-74
2022/01/10 06:47:01;;;;;;;;;;;;;;;5.81;50.44;99382.41;4369436;32;20097;-73
2022/01/10 06:49:28;;;;;;;;;;;;;;;5.92;49.93;99380.97;4354385;32;20410;-73
2022/01/10 06:51:54;;;;;;;;;;;;;;;5.86;50.25;99385.94;4367794;32;20014;-73
2022/01/10 06:54:21;;;;;;;;;;;;;;;5.92;49.98;99385.25;4355671;32;20001;-74
2022/01/10 06:56:49;;;;;;;;;;;;;;;5.89;50.15;99391.16;4356108;32;20002;-74
2022/01/10 06:59:17;;;;;;;;;;;;;;;5.88;50.21;99389.44;4360716;32;20381;-74
2022/01/10 07:01:44;;;;;;;;;;;;;;;5.87;50.07;99392.84;4359170;32;19991;-74
2022/01/10 07:04:12;;;;;;;;;;;;;;;5.92;49.93;99396.38;4371183;32;20021;-74
2022/01/10 07:06:42;;;;;;;;;;;;;;;5.87;49.91;99403.12;4359304;32;20287;-74
2022/01/10 07:09:09;;;;;;;;;;;;;;;5.89;49.60;99401.44;4355853;32;20006;-74
2022/01/10 07:11:37;;;;;;;;;;;;;;;5.95;48.81;99401.63;4356274;32;19979;-73
2022/01/10 07:14:04;;;;;;;;;;;;;;;5.95;49.05;99400.78;4363109;32;20111;-74
2022/01/10 07:16:31;;;;;;;;;;;;;;;5.79;49.46;99404.59;4370701;32;19983;-73
2022/01/10 07:18:59;;;;;;;;;;;;;;;5.88;49.22;99402.28;4371245;32;20014;-75
2022/01/10 07:21:28;;;;;;;;;;;;;;;6.02;48.84;99407.81;4370750;32;20367;-75
2022/01/10 07:23:55;;;;;;;;;;;;;;;6.07;48.87;99411.38;4370783;32;19987;-73
2022/01/10 07:26:22;;;;;;;;;;;;;;;6.02;48.86;99424.09;4357085;32;19998;-73
2022/01/10 07:28:52;;;;;;;;;;;;;;;5.77;49.71;99434.47;4369323;32;20426;-73
2022/01/10 07:31:19;;;;;;;;;;;;;;;5.93;48.86;99428.97;4346882;32;20359;-74
2022/01/10 07:33:46;;;;;;;;;;;;;;;6.07;48.21;99442.22;4370193;32;19984;-73
2022/01/10 07:36:13;;;;;;;;;;;;;;;6.24;48.18;99447.81;4370095;32;19990;-73
2022/01/10 07:38:39;;;;;;;;;;;;;;;6.05;48.06;99449.00;4373214;32;19986;-72
2022/01/10 07:41:07;;;;;;;;;;;;;;;5.86;48.67;99447.59;4359021;32;19996;-73
2022/01/10 07:43:34;;;;;;;;;;;;;;;6.10;48.51;99446.56;4392134;32;19976;-75
2022/01/10 07:46:02;;;;;;;;;;;;;;;6.02;48.73;99444.66;4392334;32;20008;-73
2022/01/10 07:48:31;;;;;;;;;;;;;;;6.04;49.30;99448.12;4352695;32;19975;-73
2022/01/10 07:50:57;;;;;;;;;;;;;;;6.11;49.01;99448.31;4364116;32;20774;-73
2022/01/10 07:53:24;;;;;;;;;;;;;;;6.15;48.06;99460.41;4353707;32;20002;-73
2022/01/10 07:55:56;;;;;;;;;;;;;;;6.27;47.56;99459.03;4352074;32;19994;-74
2022/01/10 07:58:23;;;;;;;;;;;;;;;6.27;47.56;99461.59;4355800;32;20062;-73
2022/01/10 08:00:49;;;;;;;;;;;;;;;6.42;47.72;99456.03;4360238;32;20003;-72
2022/01/10 08:03:17;;;;;;;;;;;;;;;6.59;47.02;99458.16;4369941;32;19982;-73
2022/01/10 08:05:44;;;;;;;;;;;;;;;6.69;46.24;99461.00;4370658;32;19991;-73
2022/01/10 08:08:10;;;;;;;;;;;;;;;6.58;46.83;99456.44;4370445;32;20005;-73
2022/01/10 08:10:37;;;;;;;;;;;;;;;6.84;46.40;99463.09;4370242;32;20034;-73
2022/01/10 08:13:06;;;;;;;;;;;;;;;6.90;45.89;99467.53;4370961;32;20009;-75
2022/01/10 08:15:33;;;;;;;;;;;;;;;6.97;45.53;99472.84;4368217;32;19994;-73
2022/01/10 08:18:00;;;;;;;;;;;;;;;7.09;45.45;99466.28;4368971;32;19978;-73
2022/01/10 08:20:27;;;;;;;;;;;;;;;7.23;44.61;99467.44;4370573;32;19983;-74
2022/01/10 08:22:54;;;;;;;;;;;;;;;7.02;44.65;99469.50;4369763;32;19989;-73
2022/01/10 08:25:21;;;;;;;;;;;;;;;7.49;43.95;99467.16;4359227;32;20379;-74
2022/01/10 08:27:48;;;;;;;;;;;;;;;7.67;43.62;99467.59;4369583;32;20041;-73
2022/01/10 08:30:17;;;;;;;;;;;;;;;7.63;43.80;99470.94;4366546;32;889293;-74
2022/01/10 08:32:50;;;;;;;;;;;;;;;7.99;42.86;99470.84;4370856;32;19983;-78
2022/01/10 08:35:17;;;;;;;;;;;;;;;7.84;42.71;99478.25;4368637;32;19983;-73
2022/01/10 08:37:45;;;;;;;;;;;;;;;8.50;41.66;99469.28;4324407;32;20010;-73
2022/01/10 08:40:12;;;;;;;;;;;;;;;8.54;42.16;99473.63;4379949;32;20041;-73
2022/01/10 08:42:39;;;;;;;;;;;;;;;8.59;41.66;99479.75;4369229;32;19988;-75
2022/01/10 08:45:08;;;;;;;;;;;;;;;8.70;41.54;99473.06;4364163;32;20006;-74
2022/01/10 08:47:35;;;;;;;;;;;;;;;8.89;40.55;99473.38;4394152;32;20039;-76
2022/01/10 08:50:02;;;;;;;;;;;;;;;8.91;40.74;99484.63;4393233;32;20046;-74
2022/01/10 08:52:29;;;;;;;;;;;;;;;8.77;42.66;99485.22;4365579;32;20382;-75
2022/01/10 08:54:56;;;;;;;;;;;;;;;9.10;40.11;99484.06;4368976;32;20043;-73
2022/01/10 08:57:24;;;;;;;;;;;;;;;9.19;39.97;99489.38;4370494;32;20061;-72
2022/01/10 08:59:51;;;;;;;;;;;;;;;9.15;41.23;99487.56;4370362;32;20450;-72
2022/01/10 09:02:18;;;;;;;;;;;;;;;9.07;40.08;99494.34;4356705;32;19975;-72
2022/01/10 09:04:46;;;;;;;;;;;;;;;9.29;39.97;99491.28;4368869;32;20070;-73
2022/01/10 09:07:14;;;;;;;;;;;;;;;9.46;39.50;99488.06;4369001;32;21345;-72
2022/01/10 09:09:40;;;;;;;;;;;;;;;8.95;41.62;99499.31;4370124;32;19991;-75
2022/01/10 09:12:08;;;;;;;;;;;;;;;9.05;41.44;99502.06;4368524;32;19970;-76
2022/01/10 09:14:35;;;;;;;;;;;;;;;9.31;39.33;99499.88;4370302;32;20006;-74
2022/01/10 09:17:03;;;;;;;;;;;;;;;9.41;39.42;99502.62;4368584;32;20795;-72
2022/01/10 09:19:30;;;;;;;;;;;;;;;9.55;39.46;99499.41;4393114;32;20025;-73
2022/01/10 09:21:58;;;;;;;;;;;;;;;9.74;37.85;99505.72;4373745;32;19998;-72
2022/01/10 09:24:24;;;;;;;;;;;;;;;8.94;39.44;99513.94;4369860;32;20082;-73
2022/01/10 09:26:51;;;;;;;;;;;;;;;9.38;39.21;99511.22;4370308;32;20054;-73
2022/01/10 09:29:18;;;;;;;;;;;;;;;9.50;39.57;99507.91;4367976;32;19983;-72
2022/01/10 09:31:45;;;;;;;;;;;;;;;9.48;38.84;99514.81;4369773;32;20003;-72
2022/01/10 09:34:12;;;;;;;;;;;;;;;9.63;39.17;99507.25;4370347;32;20002;-72
2022/01/10 09:36:39;;;;;;;;;;;;;;;9.72;37.84;99504.81;4355416;32;20169;-72
2022/01/10 09:39:06;;;;;;;;;;;;;;;9.51;38.49;99502.78;4380268;32;19990;-73
2022/01/10 09:41:33;;;;;;;;;;;;;;;9.43;37.22;99504.38;4370163;32;20022;-72
2022/01/10 09:44:02;;;;;;;;;;;;;;;9.80;37.04;99499.75;4368658;32;20038;-72
2022/01/10 09:46:30;;;;;;;;;;;;;;;10.01;35.66;99500.00;4368268;32;20001;-72
2022/01/10 09:49:01;;;;;;;;;;;;;;;9.74;36.40;99495.38;4369946;32;19995;-72
2022/01/10 09:51:29;;;;;;;;;;;;;;;9.58;37.66;99493.41;4367933;32;19987;-72
2022/01/10 09:53:56;;;;;;;;;;;;;;;9.77;35.97;99500.56;4367955;32;19995;-72
2022/01/10 09:56:24;;;;;;;;;;;;;;;9.73;36.52;99496.22;4361589;32;20010;-71
2022/01/10 09:58:53;;;;;;;;;;;;;;;9.51;36.68;99489.00;4368002;32;19982;-72
2022/01/10 10:01:20;;;;;;;;;;;;;;;9.59;36.06;99499.44;4368058;32;20062;-72
2022/01/10 10:03:47;;;;;;;;;;;;;;;9.74;36.16;99499.66;4367065;32;20039;-72
2022/01/10 10:06:14;;;;;;;;;;;;;;;9.84;36.38;99492.91;4368776;32;19991;-72
2022/01/10 10:08:41;;;;;;;;;;;;;;;9.76;36.80;99492.78;4364990;32;20397;-72
2022/01/10 10:11:08;;;;;;;;;;;;;;;10.27;36.36;99501.22;4369611;32;19995;-72
2022/01/10 10:13:40;;;;;;;;;;;;;;;10.01;37.12;99500.00;4367143;32;20474;-71
2022/01/10 10:16:13;;;;;;;;;;;;;;;10.05;37.37;99506.13;4345283;32;20410;-71
2022/01/10 10:18:40;;;;;;;;;;;;;;;10.12;37.38;99497.59;4369775;32;20329;-71
2022/01/10 10:21:12;;;;;;;;;;;;;;;9.32;40.33;99506.81;4341403;32;19998;-72
2022/01/10 10:23:40;;;;;;;;;;;;;;;9.96;38.65;99493.06;4364322;32;20005;-72
2022/01/10 10:26:07;;;;;;;;;;;;;;;9.94;38.09;99498.22;4354403;32;20090;-72
2022/01/10 10:28:37;;;;;;;;;;;;;;;9.66;38.05;99502.12;4359483;32;19979;-71
2022/01/10 10:31:04;;;;;;;;;;;;;;;9.99;37.03;99490.53;4358477;32;20033;-72
2022/01/10 10:33:33;;;;;;;;;;;;;;;10.12;36.72;99487.25;4362264;32;20001;-71
2022/01/10 10:36:03;;;;;;;;;;;;;;;9.94;37.08;99497.34;4354800;32;20041;-72
2022/01/10 10:38:31;;;;;;;;;;;;;;;9.98;36.78;99493.94;4340843;32;19987;-72
2022/01/10 10:41:02;;;;;;;;;;;;;;;9.88;36.70;99497.25;4357101;32;20009;-72
2022/01/10 10:43:29;;;;;;;;;;;;;;;10.06;36.88;99492.34;4358405;32;20034;-72
2022/01/10 10:45:59;;;;;;;;;;;;;;;10.08;36.91;99493.19;4346580;32;19991;-71
2022/01/10 10:48:26;;;;;;;;;;;;;;;10.11;36.11;99485.47;4354977;32;20024;-71
2022/01/10 10:50:54;;;;;;;;;;;;;;;10.07;37.69;99491.47;4363225;32;19991;-71
2022/01/10 10:53:21;;;;;;;;;;;;;;;10.05;38.23;99495.78;4371435;32;20029;-72
2022/01/10 10:55:48;;;;;;;;;;;;;;;10.14;37.94;99495.00;4366193;32;20054;-71
2022/01/10 10:58:15;;;;;;;;;;;;;;;10.31;38.13;99492.66;4386696;32;19994;-71
2022/01/10 11:00:42;;;;;;;;;;;;;;;9.93;39.02;99495.63;4386510;32;20034;-71
2022/01/10 11:03:10;;;;;;;;;;;;;;;9.63;41.02;99491.75;4363524;32;19990;-72
2022/01/10 11:05:38;;;;;;;;;;;;;;;10.28;38.43;99497.81;4373240;32;19994;-71
2022/01/10 11:08:04;;;;;;;;;;;;;;;10.08;39.35;99500.09;4372578;32;19994;-72
2022/01/10 11:10:32;;;;;;;;;;;;;;;9.89;40.29;99506.75;4385794;32;19985;-71
2022/01/10 11:12:59;;;;;;;;;;;;;;;9.89;40.40;99505.06;4359324;32;20049;-76
2022/01/10 11:15:26;;;;;;;;;;;;;;;9.45;41.19;99512.16;4360849;32;19995;-71
2022/01/10 11:17:53;;;;;;;;;;;;;;;9.75;40.89;99517.78;4386362;32;20020;-71
2022/01/10 11:20:21;;;;;;;;;;;;;;;10.05;39.92;99511.28;4385795;32;19995;-71
2022/01/10 11:22:49;;;;;;;;;;;;;;;9.55;40.86;99514.91;4384956;32;19978;-71
2022/01/10 11:25:27;;;;;;;;;;;;;;;9.94;40.08;99518.03;4386148;32;19991;-71
2022/01/10 11:27:55;;;;;;;;;;;;;;;9.98;40.37;99517.22;4385466;32;19983;-71
2022/01/10 11:30:24;;;;;;;;;;;;;;;10.25;39.16;99520.16;4385447;32;20587;-73
2022/01/10 11:33:01;;;;;;;;;;;;;;;10.12;39.85;99518.28;4386218;32;20383;-72
2022/01/10 11:35:47;;;;;;;;;;;;;;;10.25;39.10;99520.16;4371051;32;20312;-72
2022/01/10 11:38:20;;;;;;;;;;;;;;;10.53;38.70;99520.53;4385022;32;19979;-71
2022/01/10 11:40:51;;;;;;;;;;;;;;;10.74;37.50;99521.59;4384422;32;20054;-78
2022/01/10 11:43:29;;;;;;;;;;;;;;;10.84;34.61;99529.44;4386571;32;20389;-72
2022/01/10 11:46:12;;;;;;;;;;;;;;;10.85;33.09;99517.41;4386234;32;19995;-72
2022/01/10 11:48:50;;;;;;;;;;;;;;;10.85;33.27;99522.59;4385940;32;20371;-72
2022/01/10 11:51:18;;;;;;;;;;;;;;;10.99;33.04;99520.97;4385614;32;20036;-71
2022/01/10 11:53:46;;;;;;;;;;;;;;;10.89;32.30;99526.94;4385445;32;20316;-71
2022/01/10 11:56:20;;;;;;;;;;;;;;;10.84;32.88;99531.19;4386179;32;19990;-70
2022/01/10 11:59:05;;;;;;;;;;;;;;;10.70;33.70;99534.50;4385306;32;20772;-71
2022/01/10 12:01:34;;;;;;;;;;;;;;;11.02;31.88;99536.53;4385720;32;19990;-70
2022/01/10 12:04:01;;;;;;;;;;;;;;;11.11;31.39;99525.41;4370541;32;20375;-70
2022/01/10 12:06:28;;;;;;;;;;;;;;;11.18;30.61;99522.88;4370204;32;20708;-76
2022/01/10 12:08:58;;;;;;;;;;;;;;;11.22;30.11;99534.13;4370518;32;20427;-73
2022/01/10 12:11:27;;;;;;;;;;;;;;;11.29;29.63;99545.41;4385230;32;20272;-71
2022/01/10 12:13:54;;;;;;;;;;;;;;;10.99;29.82;99544.28;4385869;32;20449;-70
2022/01/10 12:16:22;;;;;;;;;;;;;;;11.00;28.72;99539.97;4385942;32;20006;-71
2022/01/10 12:18:49;;;;;;;;;;;;;;;11.12;28.78;99535.75;4385535;32;19978;-71
2022/01/10 12:21:15;;;;;;;;;;;;;;;11.07;28.31;99546.94;4386236;32;19975;-72
2022/01/10 12:23:43;;;;;;;;;;;;;;;11.10;28.15;99545.28;4385588;32;20013;-71
2022/01/10 12:26:14;;;;;;;;;;;;;;;11.08;27.83;99546.97;4385467;32;20834;-72
2022/01/10 12:28:40;;;;;;;;;;;;;;;10.41;27.77;99551.44;4385279;32;19991;-72
2022/01/10 12:31:07;;;;;;;;;;;;;;;10.58;28.73;99544.72;4362542;32;19993;-71
2022/01/10 12:33:34;;;;;;;;;;;;;;;10.99;28.22;99552.06;4385382;32;20368;-72
2022/01/10 12:36:02;;;;;;;;;;;;;;;10.81;27.47;99551.84;4385403;32;19998;-71
2022/01/10 12:38:29;;;;;;;;;;;;;;;10.92;27.14;99555.44;4385951;32;19983;-72
2022/01/10 12:40:56;;;;;;;;;;;;;;;10.79;27.68;99562.22;4383977;32;19986;-71
2022/01/10 12:43:23;;;;;;;;;;;;;;;10.96;26.97;99562.38;4386007;32;20054;-73
2022/01/10 12:45:50;;;;;;;;;;;;;;;10.85;26.81;99564.00;4385183;32;19989;-72
2022/01/10 12:48:17;;;;;;;;;;;;;;;10.90;27.22;99562.31;4371073;32;19994;-71
2022/01/10 12:50:45;;;;;;;;;;;;;;;10.90;26.65;99567.50;4384969;32;20782;-71
2022/01/10 12:53:12;;;;;;;;;;;;;;;10.74;27.84;99570.78;4383736;32;20438;-71
2022/01/10 12:55:43;;;;;;;;;;;;;;;10.82;27.92;99575.19;4384836;32;20028;-71
2022/01/10 12:58:10;;;;;;;;;;;;;;;10.88;27.77;99585.62;4371215;32;20020;-75
2022/01/10 13:00:38;;;;;;;;;;;;;;;10.87;27.77;99588.19;4358738;32;19967;-71
2022/01/10 13:03:05;;;;;;;;;;;;;;;11.08;27.65;99588.41;4383209;32;20018;-71
2022/01/10 13:05:32;;;;;;;;;;;;;;;11.03;27.85;99599.56;4384827;32;20335;-71
2022/01/10 13:08:00;;;;;;;;;;;;;;;10.93;27.76;99598.59;4371506;32;20061;-72